Weather at Moorea Temae Airport

Public forecast

Using degrees Celsius for public forecast. Weather courtesy of forecast.io.

Closest aviation weather report (METAR) to Moorea Temae Airport

Closest report is Faa'a International Airport, 9.7 nm (17.9 km) ESE. Retrieved 2021/10/21 03:30 UTC (6 minutes ago):

NTAA 210330Z 19005KT 9999 -RA FEW016CB SCT053 BKN083 23/21 Q1014 TEMPO 34015G25KT 3000 TSRA SCT013CB BKN030

Closest aviation forecast (TAF) to Moorea Temae Airport

Closest forecast is Faa'a International Airport, 9.7 nm (17.9 km) ESE. Retrieved 2021-10-21 00:13 UTC (3 hours ago):

TAF NTAA 202300Z 2100/2206 04013KT 9999 FEW015CB SCT040 BKN080 TEMPO 2100/2113 35015G25KT 3000 TSRA SCT013CB BKN030